sensor_id;sensor_type;location;lat;lon;timestamp;pressure;altitude;pressure_sealevel;temperature;humidity
7109;BME280;29079;41.930;25.558;2022-10-16T00:00:39;100342.13;;;10.11;69.14
7109;BME280;29079;41.930;25.558;2022-10-16T00:03:11;100345.59;;;10.00;69.70
7109;BME280;29079;41.930;25.558;2022-10-16T00:05:41;100342.97;;;9.87;69.94
7109;BME280;29079;41.930;25.558;2022-10-16T00:08:11;100348.91;;;10.04;69.23
7109;BME280;29079;41.930;25.558;2022-10-16T00:10:41;100340.81;;;9.92;70.39
7109;BME280;29079;41.930;25.558;2022-10-16T00:13:11;100346.56;;;9.99;69.83
7109;BME280;29079;41.930;25.558;2022-10-16T00:15:41;100350.41;;;9.95;69.65
7109;BME280;29079;41.930;25.558;2022-10-16T00:18:13;100347.03;;;9.80;70.78
7109;BME280;29079;41.930;25.558;2022-10-16T00:20:43;100346.06;;;9.81;70.70
7109;BME280;29079;41.930;25.558;2022-10-16T00:23:13;100349.16;;;9.88;70.76
7109;BME280;29079;41.930;25.558;2022-10-16T00:25:42;100347.91;;;9.81;70.67
7109;BME280;29079;41.930;25.558;2022-10-16T00:28:12;100352.81;;;9.74;70.41
7109;BME280;29079;41.930;25.558;2022-10-16T00:30:42;100359.09;;;9.73;70.47
7109;BME280;29079;41.930;25.558;2022-10-16T00:33:11;100351.41;;;9.81;70.17
7109;BME280;29079;41.930;25.558;2022-10-16T00:35:42;100352.91;;;9.85;69.62
7109;BME280;29079;41.930;25.558;2022-10-16T00:38:12;100350.22;;;9.85;69.77
7109;BME280;29079;41.930;25.558;2022-10-16T00:40:42;100348.84;;;9.80;69.78
7109;BME280;29079;41.930;25.558;2022-10-16T00:43:12;100346.66;;;9.73;70.18
7109;BME280;29079;41.930;25.558;2022-10-16T00:45:43;100352.19;;;9.70;69.80
7109;BME280;29079;41.930;25.558;2022-10-16T00:48:13;100360.09;;;9.59;70.49
7109;BME280;29079;41.930;25.558;2022-10-16T00:50:45;100360.22;;;9.57;69.89
7109;BME280;29079;41.930;25.558;2022-10-16T00:53:14;100358.41;;;9.58;70.31
7109;BME280;29079;41.930;25.558;2022-10-16T00:55:45;100354.41;;;9.27;71.09
7109;BME280;29079;41.930;25.558;2022-10-16T00:58:15;100358.63;;;9.42;71.01
7109;BME280;29079;41.930;25.558;2022-10-16T01:00:44;100360.69;;;9.13;71.23
7109;BME280;29079;41.930;25.558;2022-10-16T01:03:25;100353.31;;;9.16;71.18
7109;BME280;29079;41.930;25.558;2022-10-16T01:06:09;100348.31;;;9.12;71.43
7109;BME280;29079;41.930;25.558;2022-10-16T01:08:44;100355.78;;;9.06;71.91
7109;BME280;29079;41.930;25.558;2022-10-16T01:11:21;100358.25;;;9.10;71.92
7109;BME280;29079;41.930;25.558;2022-10-16T01:13:54;100356.97;;;9.15;71.19
7109;BME280;29079;41.930;25.558;2022-10-16T01:16:27;100364.41;;;9.10;71.21
7109;BME280;29079;41.930;25.558;2022-10-16T01:19:01;100368.44;;;8.90;72.16
7109;BME280;29079;41.930;25.558;2022-10-16T01:21:35;100373.66;;;9.04;71.11
7109;BME280;29079;41.930;25.558;2022-10-16T01:24:06;100374.75;;;8.89;72.07
7109;BME280;29079;41.930;25.558;2022-10-16T01:26:44;100371.63;;;8.82;71.81
7109;BME280;29079;41.930;25.558;2022-10-16T01:29:20;100376.31;;;8.92;72.49
7109;BME280;29079;41.930;25.558;2022-10-16T01:31:52;100376.84;;;8.84;72.47
7109;BME280;29079;41.930;25.558;2022-10-16T01:34:25;100389.00;;;8.88;71.80
7109;BME280;29079;41.930;25.558;2022-10-16T01:36:57;100385.91;;;8.94;71.14
7109;BME280;29079;41.930;25.558;2022-10-16T01:39:31;100385.50;;;8.87;71.14
7109;BME280;29079;41.930;25.558;2022-10-16T01:42:03;100379.84;;;8.92;72.01
7109;BME280;29079;41.930;25.558;2022-10-16T01:44:35;100381.84;;;8.88;71.67
7109;BME280;29079;41.930;25.558;2022-10-16T01:47:07;100382.72;;;8.89;72.31
7109;BME280;29079;41.930;25.558;2022-10-16T01:49:38;100376.13;;;8.95;71.15
7109;BME280;29079;41.930;25.558;2022-10-16T01:52:09;100385.28;;;8.91;71.34
7109;BME280;29079;41.930;25.558;2022-10-16T01:54:41;100382.69;;;8.76;71.91
7109;BME280;29079;41.930;25.558;2022-10-16T01:57:12;100390.59;;;8.78;71.54
7109;BME280;29079;41.930;25.558;2022-10-16T01:59:45;100399.47;;;8.64;72.49
7109;BME280;29079;41.930;25.558;2022-10-16T02:02:16;100392.28;;;8.79;71.50
7109;BME280;29079;41.930;25.558;2022-10-16T02:04:47;100403.69;;;8.81;71.70
7109;BME280;29079;41.930;25.558;2022-10-16T02:07:18;100403.22;;;8.74;70.95
7109;BME280;29079;41.930;25.558;2022-10-16T02:09:48;100401.44;;;8.75;71.40
7109;BME280;29079;41.930;25.558;2022-10-16T02:12:19;100410.69;;;8.69;71.82
7109;BME280;29079;41.930;25.558;2022-10-16T02:14:53;100415.91;;;8.70;72.14
7109;BME280;29079;41.930;25.558;2022-10-16T02:17:23;100408.53;;;8.74;71.38
7109;BME280;29079;41.930;25.558;2022-10-16T02:19:53;100421.84;;;8.74;71.48
7109;BME280;29079;41.930;25.558;2022-10-16T02:22:25;100414.13;;;8.84;70.94
7109;BME280;29079;41.930;25.558;2022-10-16T02:24:57;100414.75;;;8.75;72.07
7109;BME280;29079;41.930;25.558;2022-10-16T02:27:29;100410.41;;;8.86;70.83
7109;BME280;29079;41.930;25.558;2022-10-16T02:30:05;100412.59;;;8.80;71.17
7109;BME280;29079;41.930;25.558;2022-10-16T02:32:40;100408.91;;;8.82;71.15
7109;BME280;29079;41.930;25.558;2022-10-16T02:35:12;100418.25;;;8.75;72.34
7109;BME280;29079;41.930;25.558;2022-10-16T02:37:42;100412.56;;;8.67;72.40
7109;BME280;29079;41.930;25.558;2022-10-16T02:40:12;100417.38;;;8.62;71.81
7109;BME280;29079;41.930;25.558;2022-10-16T02:42:42;100421.22;;;8.70;71.78
7109;BME280;29079;41.930;25.558;2022-10-16T02:45:14;100415.94;;;8.83;71.68
7109;BME280;29079;41.930;25.558;2022-10-16T02:47:44;100416.88;;;8.82;72.01
7109;BME280;29079;41.930;25.558;2022-10-16T02:50:14;100424.22;;;8.92;71.61
7109;BME280;29079;41.930;25.558;2022-10-16T02:52:44;100418.38;;;8.86;71.32
7109;BME280;29079;41.930;25.558;2022-10-16T02:55:14;100420.94;;;8.88;71.45
7109;BME280;29079;41.930;25.558;2022-10-16T02:57:43;100426.91;;;8.92;71.35
7109;BME280;29079;41.930;25.558;2022-10-16T03:00:15;100422.97;;;8.97;71.46
7109;BME280;29079;41.930;25.558;2022-10-16T03:02:45;100424.69;;;8.98;71.69
7109;BME280;29079;41.930;25.558;2022-10-16T03:05:15;100432.22;;;8.92;71.52
7109;BME280;29079;41.930;25.558;2022-10-16T03:07:45;100429.56;;;8.79;72.53
7109;BME280;29079;41.930;25.558;2022-10-16T03:10:15;100432.50;;;8.61;72.99
7109;BME280;29079;41.930;25.558;2022-10-16T03:12:45;100424.00;;;8.69;72.18
7109;BME280;29079;41.930;25.558;2022-10-16T03:15:16;100434.47;;;8.58;73.16
7109;BME280;29079;41.930;25.558;2022-10-16T03:17:46;100430.81;;;8.73;72.39
7109;BME280;29079;41.930;25.558;2022-10-16T03:20:16;100424.63;;;8.73;71.29
7109;BME280;29079;41.930;25.558;2022-10-16T03:22:46;100433.13;;;8.65;71.94
7109;BME280;29079;41.930;25.558;2022-10-16T03:25:15;100439.94;;;8.69;72.19
7109;BME280;29079;41.930;25.558;2022-10-16T03:27:45;100437.50;;;8.66;71.99
7109;BME280;29079;41.930;25.558;2022-10-16T03:30:16;100432.28;;;8.64;72.79
7109;BME280;29079;41.930;25.558;2022-10-16T03:32:47;100440.97;;;8.53;72.88
7109;BME280;29079;41.930;25.558;2022-10-16T03:35:16;100443.72;;;8.52;73.17
7109;BME280;29079;41.930;25.558;2022-10-16T03:37:46;100441.31;;;8.62;73.00
7109;BME280;29079;41.930;25.558;2022-10-16T03:40:16;100439.44;;;8.49;72.89
7109;BME280;29079;41.930;25.558;2022-10-16T03:42:45;100445.94;;;8.45;73.33
7109;BME280;29079;41.930;25.558;2022-10-16T03:45:16;100447.44;;;8.35;73.49
7109;BME280;29079;41.930;25.558;2022-10-16T03:47:46;100444.97;;;8.46;73.47
7109;BME280;29079;41.930;25.558;2022-10-16T03:50:16;100452.16;;;8.59;72.16
7109;BME280;29079;41.930;25.558;2022-10-16T03:52:45;100458.69;;;8.67;71.90
7109;BME280;29079;41.930;25.558;2022-10-16T03:55:15;100458.44;;;8.58;72.84
7109;BME280;29079;41.930;25.558;2022-10-16T03:57:45;100451.13;;;8.61;72.22
7109;BME280;29079;41.930;25.558;2022-10-16T04:00:15;100460.94;;;8.74;72.41
7109;BME280;29079;41.930;25.558;2022-10-16T04:02:46;100452.31;;;8.70;71.87
7109;BME280;29079;41.930;25.558;2022-10-16T04:05:16;100463.38;;;8.77;71.57
7109;BME280;29079;41.930;25.558;2022-10-16T04:07:46;100454.22;;;8.68;72.53
7109;BME280;29079;41.930;25.558;2022-10-16T04:10:15;100455.97;;;8.54;72.24
7109;BME280;29079;41.930;25.558;2022-10-16T04:12:46;100465.56;;;8.57;72.31
7109;BME280;29079;41.930;25.558;2022-10-16T04:15:16;100460.09;;;8.46;73.06
7109;BME280;29079;41.930;25.558;2022-10-16T04:17:47;100458.28;;;8.46;72.25
7109;BME280;29079;41.930;25.558;2022-10-16T04:20:17;100463.03;;;8.41;73.32
7109;BME280;29079;41.930;25.558;2022-10-16T04:22:46;100470.84;;;8.30;74.08
7109;BME280;29079;41.930;25.558;2022-10-16T04:25:16;100463.69;;;8.45;72.77
7109;BME280;29079;41.930;25.558;2022-10-16T04:27:46;100471.03;;;8.27;73.55
7109;BME280;29079;41.930;25.558;2022-10-16T04:30:16;100465.16;;;8.22;73.32
7109;BME280;29079;41.930;25.558;2022-10-16T04:32:48;100474.09;;;8.21;73.43
7109;BME280;29079;41.930;25.558;2022-10-16T04:35:18;100469.41;;;8.24;73.85
7109;BME280;29079;41.930;25.558;2022-10-16T04:37:49;100470.22;;;8.39;72.57
7109;BME280;29079;41.930;25.558;2022-10-16T04:40:19;100471.94;;;8.40;72.57
7109;BME280;29079;41.930;25.558;2022-10-16T04:42:49;100478.63;;;8.33;73.30
7109;BME280;29079;41.930;25.558;2022-10-16T04:45:18;100481.94;;;8.36;73.47
7109;BME280;29079;41.930;25.558;2022-10-16T04:47:50;100477.88;;;8.31;72.78
7109;BME280;29079;41.930;25.558;2022-10-16T04:50:21;100484.41;;;8.40;72.99
7109;BME280;29079;41.930;25.558;2022-10-16T04:52:50;100484.44;;;8.25;72.84
7109;BME280;29079;41.930;25.558;2022-10-16T04:55:20;100488.31;;;8.34;73.18
7109;BME280;29079;41.930;25.558;2022-10-16T04:57:50;100491.44;;;8.26;73.85
7109;BME280;29079;41.930;25.558;2022-10-16T05:00:19;100492.19;;;8.43;73.33
7109;BME280;29079;41.930;25.558;2022-10-16T05:02:51;100485.66;;;8.48;72.89
7109;BME280;29079;41.930;25.558;2022-10-16T05:05:21;100490.28;;;8.45;73.23
7109;BME280;29079;41.930;25.558;2022-10-16T05:07:51;100488.41;;;8.47;73.75
7109;BME280;29079;41.930;25.558;2022-10-16T05:10:20;100495.47;;;8.61;73.17
7109;BME280;29079;41.930;25.558;2022-10-16T05:12:50;100496.63;;;8.84;72.30
7109;BME280;29079;41.930;25.558;2022-10-16T05:15:20;100499.66;;;8.92;72.11
7109;BME280;29079;41.930;25.558;2022-10-16T05:17:54;100509.25;;;8.95;71.76
7109;BME280;29079;41.930;25.558;2022-10-16T05:20:24;100511.56;;;8.86;70.74
7109;BME280;29079;41.930;25.558;2022-10-16T05:22:53;100518.91;;;8.96;70.63
7109;BME280;29079;41.930;25.558;2022-10-16T05:25:23;100517.56;;;9.03;70.25
7109;BME280;29079;41.930;25.558;2022-10-16T05:27:53;100537.59;;;9.09;69.71
7109;BME280;29079;41.930;25.558;2022-10-16T05:30:22;100530.66;;;9.06;70.38
7109;BME280;29079;41.930;25.558;2022-10-16T05:32:52;100537.50;;;9.10;70.10
7109;BME280;29079;41.930;25.558;2022-10-16T05:35:23;100546.34;;;9.11;70.27
7109;BME280;29079;41.930;25.558;2022-10-16T05:37:53;100539.56;;;9.19;69.74
7109;BME280;29079;41.930;25.558;2022-10-16T05:40:23;100539.56;;;9.32;69.71
7109;BME280;29079;41.930;25.558;2022-10-16T05:42:54;100540.63;;;8.89;70.86
7109;BME280;29079;41.930;25.558;2022-10-16T05:45:24;100538.84;;;9.03;71.37
7109;BME280;29079;41.930;25.558;2022-10-16T05:47:54;100491.41;;;8.82;70.96
7109;BME280;29079;41.930;25.558;2022-10-16T05:50:25;100540.31;;;9.21;70.83
7109;BME280;29079;41.930;25.558;2022-10-16T05:52:55;100533.69;;;9.14;70.72
7109;BME280;29079;41.930;25.558;2022-10-16T05:55:24;100543.63;;;9.25;70.76
7109;BME280;29079;41.930;25.558;2022-10-16T05:57:54;100542.22;;;9.32;70.46
7109;BME280;29079;41.930;25.558;2022-10-16T06:00:24;100543.88;;;9.48;70.97
7109;BME280;29079;41.930;25.558;2022-10-16T06:02:53;100538.13;;;9.67;69.98
7109;BME280;29079;41.930;25.558;2022-10-16T06:05:24;100545.69;;;9.73;70.56
7109;BME280;29079;41.930;25.558;2022-10-16T06:07:55;100561.78;;;9.84;69.69
7109;BME280;29079;41.930;25.558;2022-10-16T06:10:25;100561.28;;;9.92;70.08
7109;BME280;29079;41.930;25.558;2022-10-16T06:12:54;100565.00;;;10.02;69.87
7109;BME280;29079;41.930;25.558;2022-10-16T06:15:24;100564.56;;;10.08;69.57
7109;BME280;29079;41.930;25.558;2022-10-16T06:17:53;100568.53;;;10.16;69.83
7109;BME280;29079;41.930;25.558;2022-10-16T06:20:25;100564.56;;;10.21;69.86
7109;BME280;29079;41.930;25.558;2022-10-16T06:22:55;100561.22;;;10.31;69.70
7109;BME280;29079;41.930;25.558;2022-10-16T06:25:25;100561.91;;;10.34;69.80
7109;BME280;29079;41.930;25.558;2022-10-16T06:27:54;100571.06;;;10.43;70.80
7109;BME280;29079;41.930;25.558;2022-10-16T06:30:27;100571.25;;;10.53;70.76
7109;BME280;29079;41.930;25.558;2022-10-16T06:32:57;100574.22;;;10.61;70.32
7109;BME280;29079;41.930;25.558;2022-10-16T06:35:28;100575.16;;;10.73;70.20
7109;BME280;29079;41.930;25.558;2022-10-16T06:38:00;100577.88;;;10.84;70.35
7109;BME280;29079;41.930;25.558;2022-10-16T06:40:29;100583.75;;;10.89;70.02
7109;BME280;29079;41.930;25.558;2022-10-16T06:42:59;100582.97;;;11.00;69.88
7109;BME280;29079;41.930;25.558;2022-10-16T06:45:29;100588.59;;;11.08;69.81
7109;BME280;29079;41.930;25.558;2022-10-16T06:47:58;100588.75;;;11.18;69.86
7109;BME280;29079;41.930;25.558;2022-10-16T06:50:31;100596.94;;;11.28;69.54
7109;BME280;29079;41.930;25.558;2022-10-16T06:53:02;100595.38;;;11.37;69.70
7109;BME280;29079;41.930;25.558;2022-10-16T06:55:32;100588.63;;;11.44;69.72
7109;BME280;29079;41.930;25.558;2022-10-16T06:58:03;100592.28;;;11.54;69.42
7109;BME280;29079;41.930;25.558;2022-10-16T07:00:33;100599.09;;;11.58;69.43
7109;BME280;29079;41.930;25.558;2022-10-16T07:03:03;100598.41;;;11.67;68.44
7109;BME280;29079;41.930;25.558;2022-10-16T07:05:38;100597.47;;;11.80;67.17
7109;BME280;29079;41.930;25.558;2022-10-16T07:08:08;100591.19;;;11.92;66.57
7109;BME280;29079;41.930;25.558;2022-10-16T07:10:37;100600.22;;;12.02;65.58
7109;BME280;29079;41.930;25.558;2022-10-16T07:13:07;100597.19;;;12.07;65.48
7109;BME280;29079;41.930;25.558;2022-10-16T07:15:37;100605.13;;;12.20;65.03
7109;BME280;29079;41.930;25.558;2022-10-16T07:18:07;100604.13;;;12.32;64.22
7109;BME280;29079;41.930;25.558;2022-10-16T07:20:38;100607.91;;;12.41;63.61
7109;BME280;29079;41.930;25.558;2022-10-16T07:23:08;100603.63;;;12.50;63.03
7109;BME280;29079;41.930;25.558;2022-10-16T07:25:38;100603.88;;;12.58;62.63
7109;BME280;29079;41.930;25.558;2022-10-16T07:28:07;100602.28;;;12.67;62.16
7109;BME280;29079;41.930;25.558;2022-10-16T07:30:38;100597.66;;;12.80;62.21
7109;BME280;29079;41.930;25.558;2022-10-16T07:33:08;100593.50;;;12.87;61.69
7109;BME280;29079;41.930;25.558;2022-10-16T07:35:39;100590.78;;;12.99;61.79
7109;BME280;29079;41.930;25.558;2022-10-16T07:38:16;100596.47;;;13.05;60.66
7109;BME280;29079;41.930;25.558;2022-10-16T07:40:47;100592.31;;;13.13;60.94
7109;BME280;29079;41.930;25.558;2022-10-16T07:43:17;100594.63;;;13.17;60.27
7109;BME280;29079;41.930;25.558;2022-10-16T07:45:47;100539.03;;;12.98;59.95
7109;BME280;29079;41.930;25.558;2022-10-16T07:48:17;100589.34;;;13.38;59.01
7109;BME280;29079;41.930;25.558;2022-10-16T07:50:49;100589.94;;;13.42;59.00
7109;BME280;29079;41.930;25.558;2022-10-16T07:53:18;100597.19;;;13.51;58.63
7109;BME280;29079;41.930;25.558;2022-10-16T07:55:56;100598.25;;;13.60;58.23
7109;BME280;29079;41.930;25.558;2022-10-16T07:58:27;100589.50;;;13.58;57.39
7109;BME280;29079;41.930;25.558;2022-10-16T08:00:57;100593.94;;;13.69;57.88
7109;BME280;29079;41.930;25.558;2022-10-16T08:03:27;100595.03;;;13.66;56.79
7109;BME280;29079;41.930;25.558;2022-10-16T08:05:58;100593.09;;;13.68;56.83
7109;BME280;29079;41.930;25.558;2022-10-16T08:08:28;100595.72;;;13.80;56.53
7109;BME280;29079;41.930;25.558;2022-10-16T08:10:58;100588.25;;;13.83;56.34
7109;BME280;29079;41.930;25.558;2022-10-16T08:13:29;100598.31;;;13.91;55.59
7109;BME280;29079;41.930;25.558;2022-10-16T08:15:58;100601.19;;;13.99;55.09
7109;BME280;29079;41.930;25.558;2022-10-16T08:18:28;100591.75;;;14.05;55.18
7109;BME280;29079;41.930;25.558;2022-10-16T08:20:59;100601.53;;;14.06;54.63
7109;BME280;29079;41.930;25.558;2022-10-16T08:23:29;100603.41;;;14.15;54.52
7109;BME280;29079;41.930;25.558;2022-10-16T08:26:01;100601.41;;;14.17;53.59
7109;BME280;29079;41.930;25.558;2022-10-16T08:28:31;100607.31;;;14.32;53.27
7109;BME280;29079;41.930;25.558;2022-10-16T08:31:05;100604.44;;;14.24;52.31
7109;BME280;29079;41.930;25.558;2022-10-16T08:33:35;100610.69;;;14.34;52.92
7109;BME280;29079;41.930;25.558;2022-10-16T08:36:06;100604.06;;;14.38;52.98
7109;BME280;29079;41.930;25.558;2022-10-16T08:38:37;100605.94;;;14.48;52.26
7109;BME280;29079;41.930;25.558;2022-10-16T08:44:16;100594.53;;;14.55;51.74
7109;BME280;29079;41.930;25.558;2022-10-16T08:46:51;100596.56;;;14.63;51.72
7109;BME280;29079;41.930;25.558;2022-10-16T08:49:25;100596.63;;;14.52;51.38
7109;BME280;29079;41.930;25.558;2022-10-16T08:51:57;100600.97;;;14.64;50.15
7109;BME280;29079;41.930;25.558;2022-10-16T08:54:29;100602.97;;;14.72;50.44
7109;BME280;29079;41.930;25.558;2022-10-16T08:57:00;100593.38;;;14.79;50.08
7109;BME280;29079;41.930;25.558;2022-10-16T08:59:33;100604.25;;;14.77;49.34
7109;BME280;29079;41.930;25.558;2022-10-16T09:02:03;100593.53;;;14.87;49.81
7109;BME280;29079;41.930;25.558;2022-10-16T09:04:52;100595.06;;;14.90;50.44
7109;BME280;29079;41.930;25.558;2022-10-16T09:07:27;100600.91;;;14.95;48.45
7109;BME280;29079;41.930;25.558;2022-10-16T09:10:08;100589.13;;;14.86;48.97
7109;BME280;29079;41.930;25.558;2022-10-16T09:12:43;100584.91;;;14.93;48.90
7109;BME280;29079;41.930;25.558;2022-10-16T09:15:19;100594.69;;;14.94;49.54
7109;BME280;29079;41.930;25.558;2022-10-16T09:17:54;100590.56;;;14.90;50.02
7109;BME280;29079;41.930;25.558;2022-10-16T09:20:30;100593.66;;;14.95;50.03
7109;BME280;29079;41.930;25.558;2022-10-16T09:23:10;100582.50;;;15.00;49.28
7109;BME280;29079;41.930;25.558;2022-10-16T09:25:43;100588.75;;;15.10;49.18
7109;BME280;29079;41.930;25.558;2022-10-16T09:28:13;100597.38;;;15.14;49.23
7109;BME280;29079;41.930;25.558;2022-10-16T09:30:43;100590.72;;;15.08;48.95
7109;BME280;29079;41.930;25.558;2022-10-16T09:33:12;100589.75;;;15.09;49.19
7109;BME280;29079;41.930;25.558;2022-10-16T09:35:43;100595.81;;;15.21;48.56
7109;BME280;29079;41.930;25.558;2022-10-16T09:38:24;100586.19;;;15.19;48.19
7109;BME280;29079;41.930;25.558;2022-10-16T09:40:54;100582.81;;;15.26;47.73
7109;BME280;29079;41.930;25.558;2022-10-16T09:43:32;100583.66;;;15.27;48.20
7109;BME280;29079;41.930;25.558;2022-10-16T09:46:05;100574.75;;;15.36;48.25
7109;BME280;29079;41.930;25.558;2022-10-16T09:48:36;100574.31;;;15.41;48.63
7109;BME280;29079;41.930;25.558;2022-10-16T09:51:13;100577.88;;;15.51;47.82
7109;BME280;29079;41.930;25.558;2022-10-16T09:53:49;100566.81;;;15.54;47.87
7109;BME280;29079;41.930;25.558;2022-10-16T09:56:23;100571.47;;;15.52;47.11
7109;BME280;29079;41.930;25.558;2022-10-16T09:58:54;100567.38;;;15.58;46.68
7109;BME280;29079;41.930;25.558;2022-10-16T10:01:25;100571.91;;;15.57;45.78
7109;BME280;29079;41.930;25.558;2022-10-16T10:03:57;100564.81;;;15.66;45.48
7109;BME280;29079;41.930;25.558;2022-10-16T10:06:31;100554.44;;;15.71;45.82
7109;BME280;29079;41.930;25.558;2022-10-16T10:09:05;100563.94;;;15.75;46.06
7109;BME280;29079;41.930;25.558;2022-10-16T10:11:37;100567.91;;;15.91;44.86
7109;BME280;29079;41.930;25.558;2022-10-16T10:14:09;100563.78;;;15.96;45.18
7109;BME280;29079;41.930;25.558;2022-10-16T10:16:42;100554.28;;;16.02;45.30
7109;BME280;29079;41.930;25.558;2022-10-16T10:19:16;100547.47;;;16.08;44.68
7109;BME280;29079;41.930;25.558;2022-10-16T10:21:45;100549.28;;;16.07;44.07
7109;BME280;29079;41.930;25.558;2022-10-16T10:24:17;100552.28;;;16.04;44.78
7109;BME280;29079;41.930;25.558;2022-10-16T10:26:49;100556.69;;;16.05;44.50
7109;BME280;29079;41.930;25.558;2022-10-16T10:29:28;100558.50;;;16.05;44.55
7109;BME280;29079;41.930;25.558;2022-10-16T10:32:08;100551.81;;;16.18;44.25
7109;BME280;29079;41.930;25.558;2022-10-16T10:34:44;100555.75;;;16.24;44.28
7109;BME280;29079;41.930;25.558;2022-10-16T10:37:26;100545.66;;;16.26;43.49
7109;BME280;29079;41.930;25.558;2022-10-16T10:40:01;100543.28;;;16.23;43.56
7109;BME280;29079;41.930;25.558;2022-10-16T10:42:34;100540.44;;;16.25;43.19
7109;BME280;29079;41.930;25.558;2022-10-16T10:45:15;100539.28;;;16.27;42.55
7109;BME280;29079;41.930;25.558;2022-10-16T10:47:53;100533.22;;;16.25;43.89
7109;BME280;29079;41.930;25.558;2022-10-16T10:50:26;100519.28;;;16.30;43.67
7109;BME280;29079;41.930;25.558;2022-10-16T10:53:01;100524.34;;;16.43;43.34
7109;BME280;29079;41.930;25.558;2022-10-16T10:55:39;100526.56;;;16.47;43.28
7109;BME280;29079;41.930;25.558;2022-10-16T10:58:29;100518.81;;;16.44;43.06
7109;BME280;29079;41.930;25.558;2022-10-16T11:01:04;100520.28;;;16.57;41.84
7109;BME280;29079;41.930;25.558;2022-10-16T11:03:42;100515.28;;;16.62;41.12
7109;BME280;29079;41.930;25.558;2022-10-16T11:06:16;100514.72;;;16.58;41.88
7109;BME280;29079;41.930;25.558;2022-10-16T11:08:48;100514.31;;;16.63;41.73
7109;BME280;29079;41.930;25.558;2022-10-16T11:11:25;100518.44;;;16.57;41.10
7109;BME280;29079;41.930;25.558;2022-10-16T11:13:59;100509.19;;;16.60;41.68
7109;BME280;29079;41.930;25.558;2022-10-16T11:16:32;100508.91;;;16.63;41.52
7109;BME280;29079;41.930;25.558;2022-10-16T11:19:04;100508.91;;;16.63;42.64
7109;BME280;29079;41.930;25.558;2022-10-16T11:21:39;100500.94;;;16.61;43.13
7109;BME280;29079;41.930;25.558;2022-10-16T11:24:14;100509.13;;;16.69;40.08
7109;BME280;29079;41.930;25.558;2022-10-16T11:26:48;100510.84;;;16.70;41.10
7109;BME280;29079;41.930;25.558;2022-10-16T11:29:22;100504.97;;;16.75;40.07
7109;BME280;29079;41.930;25.558;2022-10-16T11:31:55;100500.06;;;16.70;40.04
7109;BME280;29079;41.930;25.558;2022-10-16T11:34:28;100508.00;;;16.72;39.65
7109;BME280;29079;41.930;25.558;2022-10-16T11:37:05;100498.50;;;16.68;41.10
7109;BME280;29079;41.930;25.558;2022-10-16T11:39:38;100497.13;;;16.64;40.28
7109;BME280;29079;41.930;25.558;2022-10-16T11:42:13;100503.91;;;16.68;40.07
7109;BME280;29079;41.930;25.558;2022-10-16T11:44:48;100499.44;;;16.77;39.10
7109;BME280;29079;41.930;25.558;2022-10-16T11:47:24;100479.56;;;16.78;39.21
7109;BME280;29079;41.930;25.558;2022-10-16T11:50:17;100493.38;;;16.75;39.64
7109;BME280;29079;41.930;25.558;2022-10-16T11:52:51;100490.34;;;16.78;40.08
7109;BME280;29079;41.930;25.558;2022-10-16T11:55:24;100491.59;;;16.83;38.85
7109;BME280;29079;41.930;25.558;2022-10-16T11:58:01;100494.34;;;16.74;38.98
7109;BME280;29079;41.930;25.558;2022-10-16T12:00:34;100500.13;;;16.79;38.96
7109;BME280;29079;41.930;25.558;2022-10-16T12:03:10;100498.03;;;16.73;38.94
7109;BME280;29079;41.930;25.558;2022-10-16T12:05:46;100492.44;;;16.66;39.21
7109;BME280;29079;41.930;25.558;2022-10-16T12:08:20;100493.69;;;16.71;40.15
7109;BME280;29079;41.930;25.558;2022-10-16T12:10:50;100483.63;;;16.64;39.98
7109;BME280;29079;41.930;25.558;2022-10-16T12:13:33;100486.59;;;16.70;39.30
7109;BME280;29079;41.930;25.558;2022-10-16T12:16:04;100499.75;;;16.74;38.71
7109;BME280;29079;41.930;25.558;2022-10-16T12:18:35;100490.81;;;16.73;38.81
7109;BME280;29079;41.930;25.558;2022-10-16T12:21:04;100502.91;;;16.69;39.61
7109;BME280;29079;41.930;25.558;2022-10-16T12:23:36;100493.59;;;16.63;39.93
7109;BME280;29079;41.930;25.558;2022-10-16T12:26:06;100497.81;;;16.66;38.52
7109;BME280;29079;41.930;25.558;2022-10-16T12:28:37;100503.53;;;16.63;40.31
7109;BME280;29079;41.930;25.558;2022-10-16T12:31:09;100504.22;;;16.65;39.62
7109;BME280;29079;41.930;25.558;2022-10-16T12:33:40;100500.41;;;16.58;40.49
7109;BME280;29079;41.930;25.558;2022-10-16T12:36:12;100504.22;;;16.65;39.63
7109;BME280;29079;41.930;25.558;2022-10-16T12:38:45;100504.81;;;16.59;39.99
7109;BME280;29079;41.930;25.558;2022-10-16T12:41:24;100501.09;;;16.60;39.92
7109;BME280;29079;41.930;25.558;2022-10-16T12:43:55;100495.91;;;16.76;37.67
7109;BME280;29079;41.930;25.558;2022-10-16T12:46:35;100495.19;;;16.74;38.33
7109;BME280;29079;41.930;25.558;2022-10-16T12:49:20;100503.44;;;16.73;37.67
7109;BME280;29079;41.930;25.558;2022-10-16T12:51:50;100499.06;;;16.71;37.25
7109;BME280;29079;41.930;25.558;2022-10-16T12:54:26;100494.81;;;16.69;36.84
7109;BME280;29079;41.930;25.558;2022-10-16T12:57:09;100499.34;;;16.68;37.76
7109;BME280;29079;41.930;25.558;2022-10-16T12:59:48;100504.16;;;16.75;38.36
7109;BME280;29079;41.930;25.558;2022-10-16T13:02:34;100505.22;;;16.82;37.50
7109;BME280;29079;41.930;25.558;2022-10-16T13:05:15;100500.53;;;16.84;38.31
7109;BME280;29079;41.930;25.558;2022-10-16T13:07:53;100506.69;;;16.76;38.69
7109;BME280;29079;41.930;25.558;2022-10-16T13:10:26;100502.28;;;16.75;38.63
7109;BME280;29079;41.930;25.558;2022-10-16T13:13:12;100502.03;;;16.68;39.21
7109;BME280;29079;41.930;25.558;2022-10-16T13:15:52;100499.19;;;16.70;39.24
7109;BME280;29079;41.930;25.558;2022-10-16T13:18:25;100507.16;;;16.71;39.09
7109;BME280;29079;41.930;25.558;2022-10-16T13:21:08;100505.91;;;16.66;39.13
7109;BME280;29079;41.930;25.558;2022-10-16T13:23:43;100506.59;;;16.68;39.66